Time;durP1;ratioP1;P1;durP2;ratioP2;P2;SDS_P1;SDS_P2;PMS_P1;PMS_P2;Temp;Humidity;BMP_temperature;BMP_pressure;BME280_temperature;BME280_humidity;BME280_pressure;Samples;Min_cycle;Max_cycle;Signal;HPM_P1;HPM_P2
2023/10/23 00:00:52;;;;;;;18.60;10.00;;;;;;;19.46;62.13;99670.88;4993753;28;20022;-34
2023/10/23 00:03:18;;;;;;;16.70;9.20;;;;;;;19.49;61.84;99663.03;4993475;28;20397;-37
2023/10/23 00:05:43;;;;;;;18.63;9.57;;;;;;;19.48;62.12;99668.72;4993704;28;20030;-35
2023/10/23 00:08:08;;;;;;;17.42;9.05;;;;;;;19.54;61.57;99670.38;4993622;28;20026;-36
2023/10/23 00:10:34;;;;;;;18.98;9.02;;;;;;;19.54;61.42;99662.28;4992945;28;20041;-35
2023/10/23 00:13:00;;;;;;;16.42;9.88;;;;;;;19.43;61.48;99657.91;4993515;28;20113;-37
2023/10/23 00:15:25;;;;;;;22.08;9.90;;;;;;;19.38;61.60;99664.09;4993274;28;20108;-38
2023/10/23 00:17:50;;;;;;;17.60;9.45;;;;;;;19.33;62.11;99662.19;4993654;28;20046;-37
2023/10/23 00:20:16;;;;;;;20.63;9.30;;;;;;;19.24;61.98;99652.97;4993537;28;20033;-35
2023/10/23 00:22:41;;;;;;;19.05;9.05;;;;;;;19.32;62.17;99657.88;4993519;28;20102;-36
2023/10/23 00:25:07;;;;;;;16.92;8.70;;;;;;;19.32;62.32;99662.44;4993563;28;20414;-35
2023/10/23 00:27:32;;;;;;;15.90;9.10;;;;;;;19.38;61.89;99668.66;4993475;28;20379;-35
2023/10/23 00:29:58;;;;;;;16.85;8.80;;;;;;;19.40;61.46;99667.34;4993116;28;20026;-38
2023/10/23 00:32:23;;;;;;;18.73;9.02;;;;;;;19.37;61.39;99675.16;4993193;28;20104;-37
2023/10/23 00:34:49;;;;;;;16.92;8.25;;;;;;;19.35;61.49;99664.63;4993374;28;20413;-37
2023/10/23 00:37:14;;;;;;;13.77;8.35;;;;;;;19.42;61.55;99669.75;4993007;28;20030;-36
2023/10/23 00:39:40;;;;;;;20.17;8.38;;;;;;;19.36;61.26;99671.63;4993115;28;20046;-35
2023/10/23 00:42:05;;;;;;;18.65;8.95;;;;;;;19.39;61.51;99673.81;4993028;28;20026;-37
2023/10/23 00:44:30;;;;;;;18.17;9.55;;;;;;;19.24;62.21;99671.03;4992837;28;20121;-37
2023/10/23 00:46:56;;;;;;;18.05;9.15;;;;;;;19.16;61.95;99675.06;4992073;28;20486;-35
2023/10/23 00:49:22;;;;;;;24.85;9.13;;;;;;;19.17;62.14;99678.56;4992824;28;20096;-36
2023/10/23 00:51:48;;;;;;;19.70;9.02;;;;;;;19.00;62.87;99690.34;4992947;28;20044;-38
2023/10/23 00:54:14;;;;;;;17.80;9.00;;;;;;;19.06;62.75;99697.38;4992737;28;20105;-37
2023/10/23 00:56:40;;;;;;;19.70;9.55;;;;;;;18.87;63.63;99690.81;4992865;28;20470;-36
2023/10/23 00:59:07;;;;;;;19.58;9.98;;;;;;;18.92;63.45;99686.25;4992679;28;20030;-36
2023/10/23 01:01:33;;;;;;;17.90;9.18;;;;;;;18.97;63.64;99685.47;4992785;28;20402;-35
2023/10/23 01:03:59;;;;;;;24.15;10.38;;;;;;;19.05;63.29;99692.25;4992361;28;20047;-38
2023/10/23 01:06:25;;;;;;;22.15;9.43;;;;;;;19.12;62.91;99692.84;4992663;28;20049;-36
2023/10/23 01:08:51;;;;;;;23.20;9.52;;;;;;;19.10;62.83;99690.38;4992986;28;20034;-36
2023/10/23 01:11:16;;;;;;;16.75;9.18;;;;;;;18.99;62.93;99669.84;4992442;28;20030;-40
2023/10/23 01:13:42;;;;;;;20.63;9.40;;;;;;;18.91;63.01;99690.00;4992455;28;20022;-36
2023/10/23 01:16:07;;;;;;;20.45;9.55;;;;;;;18.94;63.03;99688.66;4992526;28;20030;-37
2023/10/23 01:18:33;;;;;;;16.05;9.10;;;;;;;19.00;62.51;99684.13;4992446;28;20101;-38
2023/10/23 01:20:58;;;;;;;20.75;10.30;;;;;;;18.93;63.07;99685.16;4992306;28;20030;-36
2023/10/23 01:23:26;;;;;;;15.38;9.68;;;;;;;18.94;62.42;99686.81;4983468;28;20104;-38
2023/10/23 01:25:53;;;;;;;19.65;9.50;;;;;;;18.80;63.43;99688.31;5007326;28;20041;-37
2023/10/23 01:28:18;;;;;;;17.58;9.85;;;;;;;18.80;63.17;99693.69;5011489;28;20108;-35
2023/10/23 01:30:44;;;;;;;20.48;9.73;;;;;;;18.77;63.46;99696.88;5011864;28;20168;-37
2023/10/23 01:33:10;;;;;;;24.90;9.98;;;;;;;18.69;63.77;99687.38;5012154;28;20037;-35
2023/10/23 01:35:35;;;;;;;23.98;9.82;;;;;;;18.55;64.44;99691.59;5011381;28;20045;-37
2023/10/23 01:38:01;;;;;;;25.10;10.07;;;;;;;18.53;64.25;99686.47;5011421;28;20022;-38
2023/10/23 01:40:26;;;;;;;21.77;9.65;;;;;;;18.42;64.39;99687.44;5011690;28;20030;-38
2023/10/23 01:42:52;;;;;;;17.15;9.40;;;;;;;18.57;64.21;99692.16;5011932;28;20026;-38
2023/10/23 01:45:18;;;;;;;17.90;9.25;;;;;;;18.73;63.84;99687.69;4993880;28;20096;-37
2023/10/23 01:47:44;;;;;;;20.30;9.35;;;;;;;18.84;63.21;99694.81;4992261;28;20089;-38
2023/10/23 01:50:09;;;;;;;20.33;9.25;;;;;;;18.79;62.72;99694.75;4992243;28;20022;-35
2023/10/23 01:52:35;;;;;;;20.52;9.55;;;;;;;18.72;63.00;99688.78;4991841;28;20501;-36
2023/10/23 01:55:00;;;;;;;17.95;9.60;;;;;;;18.62;63.49;99684.13;4991852;28;20022;-38
2023/10/23 01:57:26;;;;;;;14.73;9.10;;;;;;;18.67;63.33;99686.03;4991896;28;20026;-35
2023/10/23 01:59:52;;;;;;;15.82;8.93;;;;;;;18.69;63.13;99675.81;4991057;28;20109;-35
2023/10/23 02:02:17;;;;;;;23.52;10.10;;;;;;;18.70;63.25;99683.63;4991883;28;20026;-38
2023/10/23 02:04:43;;;;;;;21.95;9.43;;;;;;;18.66;63.62;99674.44;4991401;28;20486;-38
2023/10/23 02:07:08;;;;;;;19.83;9.18;;;;;;;18.67;63.22;99680.63;4991684;28;20053;-38
2023/10/23 02:09:34;;;;;;;21.90;8.98;;;;;;;18.68;63.16;99677.69;4991614;28;20057;-35
2023/10/23 02:12:00;;;;;;;21.05;9.38;;;;;;;18.71;63.47;99682.53;4991885;28;20033;-36
2023/10/23 02:14:26;;;;;;;16.88;9.80;;;;;;;18.76;63.09;99684.47;4991729;28;20026;-36
2023/10/23 02:16:52;;;;;;;23.83;9.20;;;;;;;18.63;63.21;99683.03;4991622;28;20390;-35
2023/10/23 02:19:17;;;;;;;19.73;8.95;;;;;;;18.53;63.41;99689.16;4991569;28;20066;-38
2023/10/23 02:21:49;;;;;;;20.33;9.73;;;;;;;18.58;63.83;99691.06;4991550;28;20030;-37
2023/10/23 02:24:15;;;;;;;20.85;9.75;;;;;;;18.49;64.35;99689.94;4990998;28;20080;-36
2023/10/23 02:26:40;;;;;;;20.88;10.00;;;;;;;18.38;64.75;99689.03;4991053;28;20105;-35
2023/10/23 02:29:06;;;;;;;19.98;10.00;;;;;;;18.44;64.32;99696.09;4991286;28;20105;-36
2023/10/23 02:31:31;;;;;;;18.90;9.40;;;;;;;18.40;64.38;99696.88;4991403;28;20057;-36
2023/10/23 02:33:57;;;;;;;18.05;9.30;;;;;;;18.42;64.68;99702.81;4991675;28;20105;-38
2023/10/23 02:36:22;;;;;;;25.38;9.85;;;;;;;18.44;64.23;99703.38;4991275;28;20022;-35
2023/10/23 02:38:47;;;;;;;18.63;11.02;;;;;;;18.32;64.45;99701.66;4991311;28;20088;-36
2023/10/23 02:41:13;;;;;;;17.83;9.65;;;;;;;18.27;64.50;99712.34;4991610;28;20029;-37
2023/10/23 02:43:38;;;;;;;21.05;9.77;;;;;;;18.38;64.57;99709.78;4991017;28;20027;-39
2023/10/23 02:46:06;;;;;;;22.40;11.10;;;;;;;18.35;64.58;99700.31;4991017;28;20022;-35
2023/10/23 02:48:32;;;;;;;21.35;9.70;;;;;;;18.32;64.95;99707.03;4990992;28;20026;-38
2023/10/23 02:50:58;;;;;;;20.67;9.77;;;;;;;18.33;64.70;99699.75;4991257;28;20108;-37
2023/10/23 02:53:24;;;;;;;18.13;10.20;;;;;;;18.29;64.57;99704.84;4991371;28;20045;-36
2023/10/23 02:55:50;;;;;;;20.20;9.07;;;;;;;18.08;65.51;99711.09;5006394;28;20577;-35
2023/10/23 02:58:17;;;;;;;17.17;9.23;;;;;;;18.08;64.92;99711.09;4991371;28;20027;-38
2023/10/23 03:00:43;;;;;;;20.33;9.57;;;;;;;18.07;65.34;99709.50;4991383;28;20033;-37
2023/10/23 03:03:09;;;;;;;19.45;9.18;;;;;;;18.18;64.79;99716.56;4991107;28;20386;-36
2023/10/23 03:05:35;;;;;;;18.38;9.02;;;;;;;18.14;64.63;99712.78;4991355;28;20045;-36
2023/10/23 03:08:01;;;;;;;18.92;9.70;;;;;;;17.98;65.01;99707.22;4991247;28;20511;-37
2023/10/23 03:10:26;;;;;;;17.42;9.10;;;;;;;18.11;64.91;99705.22;4991912;28;20129;-36
2023/10/23 03:12:52;;;;;;;20.52;9.15;;;;;;;18.18;64.86;99705.81;4994442;28;20054;-35
2023/10/23 03:15:18;;;;;;;21.92;9.38;;;;;;;18.22;64.44;99712.34;4994612;28;20050;-38
2023/10/23 03:17:43;;;;;;;20.48;8.57;;;;;;;18.19;64.67;99709.34;4994551;28;20054;-36
2023/10/23 03:20:11;;;;;;;16.40;8.98;;;;;;;18.27;64.21;99717.75;4994434;28;20026;-36
2023/10/23 03:22:37;;;;;;;18.38;9.13;;;;;;;18.26;64.63;99712.59;4994545;28;20096;-38
2023/10/23 03:25:03;;;;;;;19.48;9.95;;;;;;;18.25;64.87;99719.09;4994355;28;20437;-38
2023/10/23 03:27:29;;;;;;;18.92;8.95;;;;;;;18.27;64.39;99723.13;4994510;28;20160;-36
2023/10/23 03:29:55;;;;;;;17.27;9.27;;;;;;;18.24;64.23;99723.66;4994163;28;20476;-36
2023/10/23 03:32:20;;;;;;;23.65;9.57;;;;;;;18.19;64.86;99725.50;4994303;28;20033;-38
2023/10/23 03:34:45;;;;;;;18.48;8.85;;;;;;;18.17;64.83;99725.75;4993947;28;20025;-35
2023/10/23 03:37:11;;;;;;;21.63;9.80;;;;;;;18.09;64.98;99718.13;4994534;28;20021;-36
2023/10/23 03:39:36;;;;;;;18.77;10.18;;;;;;;18.17;64.74;99718.47;4994204;28;20462;-39
2023/10/23 03:42:02;;;;;;;22.02;10.43;;;;;;;18.13;65.01;99721.94;4985871;28;20034;-38
2023/10/23 03:44:28;;;;;;;20.42;10.35;;;;;;;18.15;65.06;99719.78;4994408;28;20032;-38
2023/10/23 03:46:53;;;;;;;23.00;12.18;;;;;;;17.77;66.34;99716.94;4994213;28;20062;-39
2023/10/23 03:49:19;;;;;;;29.67;13.10;;;;;;;17.80;66.47;99710.25;4994137;28;20030;-35
2023/10/23 03:51:44;;;;;;;21.60;11.32;;;;;;;17.85;66.24;99710.31;4994290;28;20488;-35
2023/10/23 03:54:11;;;;;;;18.95;10.77;;;;;;;17.95;65.83;99705.06;4986392;28;20076;-36
2023/10/23 03:56:36;;;;;;;21.23;10.52;;;;;;;17.95;65.85;99710.44;4987452;28;20206;-37
2023/10/23 03:59:02;;;;;;;19.33;10.40;;;;;;;17.95;66.12;99709.59;4974306;28;20022;-38
2023/10/23 04:01:28;;;;;;;24.95;10.75;;;;;;;17.95;66.22;99701.53;4974594;28;20077;-38
2023/10/23 04:03:53;;;;;;;20.83;10.13;;;;;;;17.93;66.16;99717.13;4974527;28;20138;-39
2023/10/23 04:06:19;;;;;;;23.02;11.10;;;;;;;17.93;66.44;99709.06;4974640;28;20054;-38
2023/10/23 04:08:44;;;;;;;20.60;10.27;;;;;;;17.95;66.14;99705.06;4974354;28;20058;-37
2023/10/23 04:11:14;;;;;;;19.63;9.98;;;;;;;18.00;65.83;99706.19;4987472;28;20077;-37
2023/10/23 04:13:39;;;;;;;;;;;;;;;18.17;65.35;99717.66;4993134;28;20389;-38
2023/10/23 04:16:04;;;;;;;18.15;9.05;;;;;;;18.27;73.87;99715.06;4993754;28;19980;-41
2023/10/23 04:18:30;;;;;;;22.25;10.75;;;;;;;18.15;67.62;99719.78;4993956;28;20030;-37
2023/10/23 04:21:07;;;;;;;18.58;10.52;;;;;;;18.16;66.29;99713.31;4993735;28;20032;-39
2023/10/23 04:23:33;;;;;;;23.35;10.85;;;;;;;18.08;65.45;99713.78;4993803;28;20102;-39
2023/10/23 04:25:58;;;;;;;23.52;11.73;;;;;;;17.97;65.49;99710.16;4993456;28;20026;-38
2023/10/23 04:28:24;;;;;;;21.98;11.38;;;;;;;18.03;65.71;99716.41;4994195;28;20344;-36
2023/10/23 04:30:50;;;;;;;29.23;11.35;;;;;;;18.01;65.79;99710.47;4996044;28;20049;-39
2023/10/23 04:33:22;;;;;;;28.27;12.88;;;;;;;18.07;65.91;99717.56;5011565;28;20109;-36
2023/10/23 04:35:51;;;;;;;29.67;13.18;;;;;;;17.95;66.50;99720.38;5012807;28;20041;-36
2023/10/23 04:38:16;;;;;;;26.65;11.88;;;;;;;17.92;66.25;99721.72;5012288;28;20026;-39
2023/10/23 04:40:42;;;;;;;24.58;12.20;;;;;;;17.67;67.36;99726.75;5012923;28;20396;-41
2023/10/23 04:43:08;;;;;;;30.25;12.00;;;;;;;17.76;67.12;99726.09;5013240;28;20053;-39
2023/10/23 04:45:35;;;;;;;32.00;12.10;;;;;;;17.86;67.00;99728.09;5012007;28;20025;-37
2023/10/23 04:48:00;;;;;;;25.02;11.90;;;;;;;17.89;66.56;99724.91;5011833;28;20026;-38
2023/10/23 04:50:25;;;;;;;25.52;12.50;;;;;;;17.79;66.93;99733.63;5011334;28;20021;-40
2023/10/23 04:52:51;;;;;;;26.48;12.30;;;;;;;17.63;67.19;99739.91;5011417;28;20014;-38
2023/10/23 04:55:16;;;;;;;24.92;11.55;;;;;;;17.61;67.38;99743.91;5011391;28;20153;-41
2023/10/23 04:57:41;;;;;;;34.50;12.25;;;;;;;17.63;67.79;99739.91;5000019;28;20113;-38
2023/10/23 05:00:08;;;;;;;25.92;11.95;;;;;;;17.71;67.51;99747.53;4991731;28;20032;-42
2023/10/23 05:02:33;;;;;;;23.33;11.60;;;;;;;17.82;67.41;99756.56;4993864;28;20034;-40
2023/10/23 05:04:58;;;;;;;22.73;11.30;;;;;;;17.76;67.19;99744.09;4981053;28;20051;-39
2023/10/23 05:07:24;;;;;;;27.02;12.27;;;;;;;17.91;66.69;99749.69;4989170;28;20045;-39
2023/10/23 05:09:49;;;;;;;25.67;12.13;;;;;;;17.86;67.38;99757.72;4982678;28;20097;-37
2023/10/23 05:12:14;;;;;;;28.63;12.80;;;;;;;17.96;67.08;99757.81;4982971;28;20026;-40
2023/10/23 05:14:40;;;;;;;28.90;14.70;;;;;;;18.09;66.53;99763.91;4981182;28;20077;-36
2023/10/23 05:17:06;;;;;;;36.08;19.92;;;;;;;18.12;67.46;99761.50;4987479;28;20057;-39
2023/10/23 05:19:31;;;;;;;38.17;20.10;;;;;;;18.39;68.04;99770.66;4988892;28;20070;-39
2023/10/23 05:21:57;;;;;;;50.00;25.95;;;;;;;19.09;74.43;99779.66;4993143;28;20034;-37
2023/10/23 05:24:22;;;;;;;34.95;18.05;;;;;;;19.59;69.40;99777.53;4994937;28;20035;-39
2023/10/23 05:26:47;;;;;;;34.88;17.33;;;;;;;19.69;68.69;99786.50;4985117;28;20058;-39
2023/10/23 05:29:13;;;;;;;30.17;12.98;;;;;;;19.97;66.62;99776.38;4972985;28;20031;-36
2023/10/23 05:31:38;;;;;;;28.13;14.27;;;;;;;20.22;64.83;99778.34;4972917;28;20058;-36
2023/10/23 05:34:06;;;;;;;25.00;12.70;;;;;;;20.28;63.27;99779.19;5005024;28;20030;-37
2023/10/23 05:36:32;;;;;;;31.73;13.27;;;;;;;20.39;62.24;99785.38;5011789;28;20530;-38
2023/10/23 05:38:57;;;;;;;33.03;15.77;;;;;;;20.52;61.61;99790.28;5001346;28;20681;-39
2023/10/23 05:41:23;;;;;;;36.55;20.48;;;;;;;20.64;61.49;99796.28;4984610;28;20057;-38
2023/10/23 05:43:48;;;;;;;37.20;21.30;;;;;;;20.84;61.07;99800.09;4976702;28;20474;-39
2023/10/23 05:46:13;;;;;;;37.08;20.48;;;;;;;20.92;60.21;99799.53;4992007;28;20069;-41
2023/10/23 05:48:39;;;;;;;34.53;15.57;;;;;;;20.95;58.34;99803.59;4992006;28;20033;-36
2023/10/23 05:51:05;;;;;;;35.58;14.88;;;;;;;20.87;57.74;99799.56;4991949;28;20054;-37
2023/10/23 05:53:31;;;;;;;36.55;14.60;;;;;;;20.78;58.29;99801.16;4991902;28;20400;-37
2023/10/23 05:56:04;;;;;;;32.65;13.60;;;;;;;20.61;57.92;99807.63;4992026;28;20030;-35
2023/10/23 05:58:30;;;;;;;32.63;14.02;;;;;;;20.53;58.94;99801.94;4992389;28;20030;-39
2023/10/23 06:00:56;;;;;;;36.97;13.10;;;;;;;20.54;60.42;99803.53;4990504;28;20022;-39
2023/10/23 06:03:21;;;;;;;34.75;14.60;;;;;;;20.83;60.80;99810.09;4982892;28;20520;-37
2023/10/23 06:05:47;;;;;;;39.33;17.95;;;;;;;21.06;58.58;99810.66;4992082;28;20038;-41
2023/10/23 06:08:12;;;;;;;34.67;14.00;;;;;;;21.51;57.66;99806.25;4990617;28;20281;-36
2023/10/23 06:10:42;;;;;;;33.30;13.93;;;;;;;21.58;57.10;99812.22;4991701;28;20034;-28
2023/10/23 06:13:08;;;;;;;30.05;12.85;;;;;;;21.68;57.69;99805.94;4990495;28;20522;-28
2023/10/23 06:15:34;;;;;;;34.13;12.00;;;;;;;22.44;55.08;99810.22;4992152;28;20030;-27
2023/10/23 06:17:59;;;;;;;30.38;11.40;;;;;;;22.69;53.78;99813.88;4992081;28;20512;-26
2023/10/23 06:20:24;;;;;;;29.80;10.77;;;;;;;22.96;52.75;99812.56;4992055;28;20503;-26
2023/10/23 06:22:50;;;;;;;25.05;10.35;;;;;;;23.16;51.76;99812.44;4991989;28;20031;-28
2023/10/23 06:25:15;;;;;;;23.83;9.20;;;;;;;23.56;50.41;99815.03;4991629;28;20117;-27
2023/10/23 06:27:41;;;;;;;27.48;10.35;;;;;;;23.61;50.04;99817.72;4991571;28;20038;-26
2023/10/23 06:30:07;;;;;;;32.00;10.63;;;;;;;23.92;49.81;99823.63;4991110;28;20042;-25
2023/10/23 06:32:35;;;;;;;27.35;10.32;;;;;;;24.18;48.50;99809.72;4991660;28;20026;-27
2023/10/23 06:35:01;;;;;;;25.23;8.45;;;;;;;24.51;47.66;99816.06;4991665;28;20037;-26
2023/10/23 06:37:26;;;;;;;20.95;8.18;;;;;;;24.78;46.56;99823.53;4991582;28;20031;-28
2023/10/23 06:39:51;;;;;;;43.80;25.40;;;;;;;24.96;45.82;99815.66;4991654;28;20030;-26
2023/10/23 06:42:17;;;;;;;36.33;15.40;;;;;;;25.30;44.84;99809.09;4991597;28;20069;-25
2023/10/23 06:44:42;;;;;;;26.00;8.93;;;;;;;25.60;44.01;99806.94;4985210;28;20029;-27
2023/10/23 06:47:10;;;;;;;22.52;7.95;;;;;;;25.81;43.00;99810.06;4975501;28;20061;-26
2023/10/23 06:49:37;;;;;;;20.17;6.95;;;;;;;25.98;42.40;99807.53;4975506;28;20436;-28
2023/10/23 06:52:04;;;;;;;23.15;7.22;;;;;;;26.14;41.58;99806.13;4975898;28;20113;-27
2023/10/23 06:54:29;;;;;;;19.02;7.43;;;;;;;26.43;40.33;99809.59;4975723;28;20023;-27
2023/10/23 06:56:55;;;;;;;23.73;7.15;;;;;;;26.47;40.53;99814.13;4975676;28;20096;-28
2023/10/23 06:59:20;;;;;;;20.30;6.90;;;;;;;26.86;39.74;99811.88;4975608;28;20034;-28
2023/10/23 07:01:46;;;;;;;29.52;8.00;;;;;;;27.27;38.98;99806.22;4975556;28;20026;-28
2023/10/23 07:04:11;;;;;;;23.45;8.27;;;;;;;26.99;39.53;99810.19;4975235;28;20050;-27
2023/10/23 07:06:37;;;;;;;19.48;7.15;;;;;;;27.42;39.23;99812.41;4993751;28;20041;-26
2023/10/23 07:09:02;;;;;;;21.73;6.53;;;;;;;27.59;38.38;99801.53;4994644;28;20018;-28
2023/10/23 07:11:27;;;;;;;21.08;6.88;;;;;;;27.83;37.68;99803.03;4994485;28;20026;-26
2023/10/23 07:13:53;;;;;;;26.00;6.22;;;;;;;28.14;37.32;99794.78;4994896;28;20077;-26
2023/10/23 07:16:18;;;;;;;24.05;6.72;;;;;;;28.32;36.90;99792.06;4994998;28;20034;-27
2023/10/23 07:18:45;;;;;;;25.77;5.55;;;;;;;28.51;36.17;99800.75;4994495;28;20480;-29
2023/10/23 07:21:10;;;;;;;23.88;5.65;;;;;;;28.77;35.89;99792.56;4994774;28;20034;-27
2023/10/23 07:23:36;;;;;;;21.73;6.00;;;;;;;28.95;35.49;99792.53;4994689;28;20116;-28
2023/10/23 07:26:01;;;;;;;19.98;5.40;;;;;;;28.94;35.52;99790.91;4994645;28;20030;-27
2023/10/23 07:28:27;;;;;;;18.80;5.70;;;;;;;28.90;35.34;99781.75;4994598;28;20034;-28
2023/10/23 07:30:52;;;;;;;18.63;5.88;;;;;;;28.98;35.04;99781.72;4994833;28;20113;-29
2023/10/23 07:33:17;;;;;;;19.73;5.63;;;;;;;29.12;34.68;99778.78;4994608;28;20022;-26
2023/10/23 07:35:43;;;;;;;23.13;6.95;;;;;;;29.48;34.42;99772.06;4994709;28;20034;-30
2023/10/23 07:38:08;;;;;;;26.30;6.43;;;;;;;29.69;34.15;99776.81;4994518;28;20030;-26
2023/10/23 07:40:41;;;;;;;23.15;6.07;;;;;;;29.88;34.13;99779.16;4994761;28;20033;-27
2023/10/23 07:43:06;;;;;;;24.95;6.05;;;;;;;29.76;34.10;99774.41;4994680;28;20034;-30
2023/10/23 07:45:36;;;;;;;21.90;6.43;;;;;;;30.00;33.72;99777.28;4994970;28;20033;-29
2023/10/23 07:48:02;;;;;;;20.27;5.93;;;;;;;30.24;33.60;99786.81;4994635;28;20065;-28
2023/10/23 07:50:27;;;;;;;23.20;6.22;;;;;;;29.80;34.07;99778.06;4994820;28;20057;-30
2023/10/23 07:52:53;;;;;;;18.83;5.88;;;;;;;29.89;33.49;99784.31;4994590;28;20033;-26
2023/10/23 07:55:21;;;;;;;17.02;6.45;;;;;;;29.80;34.23;99781.63;4994701;28;20422;-26
2023/10/23 07:57:47;;;;;;;26.52;6.28;;;;;;;29.79;33.97;99790.16;4993983;28;20113;-26
2023/10/23 08:00:14;;;;;;;19.67;6.28;;;;;;;29.92;33.44;99782.84;4993850;28;20113;-27
2023/10/23 08:02:39;;;;;;;21.58;6.38;;;;;;;30.07;33.25;99782.25;4993623;28;20065;-26
2023/10/23 08:05:05;;;;;;;24.83;6.57;;;;;;;30.18;33.17;99783.47;4993647;28;20058;-27
2023/10/23 08:07:30;;;;;;;19.50;6.28;;;;;;;30.44;33.01;99784.41;4994020;28;20030;-26
2023/10/23 08:09:56;;;;;;;21.45;6.68;;;;;;;30.54;32.93;99781.25;4993846;28;20512;-27
2023/10/23 08:12:21;;;;;;;24.33;6.38;;;;;;;30.71;32.32;99774.81;4993816;28;20079;-28
2023/10/23 08:14:47;;;;;;;18.05;6.22;;;;;;;31.01;31.67;99775.50;4993670;28;20029;-28
2023/10/23 08:17:12;;;;;;;23.67;6.20;;;;;;;31.16;31.61;99774.81;4993373;28;20022;-27
2023/10/23 08:19:37;;;;;;;18.40;5.40;;;;;;;31.15;31.83;99783.44;4993836;28;20405;-28
2023/10/23 08:22:03;;;;;;;21.65;6.03;;;;;;;31.23;31.35;99777.03;4993675;28;20033;-31
2023/10/23 08:24:28;;;;;;;22.75;5.90;;;;;;;31.12;31.41;99771.16;4993261;28;20093;-27
2023/10/23 08:26:54;;;;;;;23.38;5.75;;;;;;;31.06;31.64;99779.97;4993246;28;20041;-28
2023/10/23 08:29:19;;;;;;;22.23;5.85;;;;;;;31.12;31.39;99773.91;4993607;28;20052;-28
2023/10/23 08:31:44;;;;;;;20.70;5.45;;;;;;;31.27;30.62;99766.94;4992836;28;20034;-26
2023/10/23 08:34:10;;;;;;;18.80;5.97;;;;;;;31.22;31.59;99769.91;4993172;28;20021;-28
2023/10/23 08:36:35;;;;;;;23.63;5.55;;;;;;;31.44;31.04;99770.63;4993115;28;20512;-28
2023/10/23 08:39:01;;;;;;;22.75;5.85;;;;;;;31.31;31.39;99772.56;4993013;28;20058;-28
2023/10/23 08:41:26;;;;;;;18.20;5.82;;;;;;;31.53;30.68;99774.91;4992850;28;20481;-27
2023/10/23 08:43:52;;;;;;;24.02;5.40;;;;;;;31.97;30.82;99779.81;4992538;28;20023;-28
2023/10/23 08:46:17;;;;;;;23.65;5.72;;;;;;;32.32;30.07;99774.56;4981778;28;20033;-26
2023/10/23 08:48:43;;;;;;;23.08;6.45;;;;;;;32.64;29.68;99768.41;4981476;28;20441;-28
2023/10/23 08:51:08;;;;;;;25.73;5.78;;;;;;;32.68;29.05;99764.59;4982711;28;20485;-27
2023/10/23 08:53:46;;;;;;;16.80;5.38;;;;;;;32.58;29.52;99764.28;4981024;28;20034;-27
2023/10/23 08:56:12;;;;;;;21.75;5.68;;;;;;;32.21;29.83;99762.44;4996732;28;20510;-27
2023/10/23 08:58:39;;;;;;;17.75;5.18;;;;;;;32.67;29.36;99751.16;4985910;28;20065;-27
2023/10/23 09:01:05;;;;;;;26.10;5.38;;;;;;;32.78;29.22;99741.22;4991454;28;20422;-29
2023/10/23 09:03:32;;;;;;;23.55;5.40;;;;;;;32.97;28.83;99739.75;4998576;28;20043;-27
2023/10/23 09:05:58;;;;;;;24.75;5.63;;;;;;;32.42;29.25;99748.47;4992898;28;20023;-28
2023/10/23 09:08:27;;;;;;;20.75;5.43;;;;;;;32.58;29.49;99745.81;4975855;28;20379;-28
2023/10/23 09:11:03;;;;;;;23.17;5.90;;;;;;;32.88;28.91;99737.97;4979957;28;20026;-27
2023/10/23 09:13:39;;;;;;;21.35;5.43;;;;;;;32.92;29.31;99746.34;4988414;28;20050;-27
2023/10/23 09:16:05;;;;;;;22.20;5.47;;;;;;;33.16;28.32;99734.34;4983760;28;20026;-27
2023/10/23 09:18:43;;;;;;;23.40;5.50;;;;;;;32.62;28.17;99737.66;4991977;28;20030;-27
2023/10/23 09:21:08;;;;;;;16.27;5.28;;;;;;;32.79;29.17;99725.53;4992242;28;20137;-28
2023/10/23 09:23:34;;;;;;;23.63;5.38;;;;;;;33.17;28.10;99718.59;4991966;28;20061;-28
2023/10/23 09:26:00;;;;;;;21.98;5.20;;;;;;;33.22;27.95;99721.88;4992206;28;20034;-27
2023/10/23 09:28:27;;;;;;;22.13;6.00;;;;;;;32.99;28.40;99712.63;4976107;28;20031;-27
2023/10/23 09:30:53;;;;;;;20.33;5.85;;;;;;;33.25;28.14;99714.88;4973828;28;20482;-29
2023/10/23 09:33:19;;;;;;;21.60;5.20;;;;;;;33.47;27.34;99711.47;4972794;28;20030;-27
2023/10/23 09:35:44;;;;;;;20.10;5.18;;;;;;;33.62;27.42;99712.56;4973039;28;20031;-28
2023/10/23 09:38:15;;;;;;;19.83;5.55;;;;;;;33.65;27.51;99709.13;4972592;28;20022;-27
2023/10/23 09:40:42;;;;;;;21.30;5.05;;;;;;;33.84;26.77;99697.34;4972524;28;20026;-29
2023/10/23 09:43:08;;;;;;;17.70;4.93;;;;;;;33.78;26.54;99709.03;4971966;28;20109;-26
2023/10/23 09:45:36;;;;;;;25.52;5.00;;;;;;;33.37;27.41;99691.91;4972068;28;20383;-28
2023/10/23 09:48:04;;;;;;;20.75;5.25;;;;;;;31.82;28.75;99689.75;4971247;28;20045;-28
2023/10/23 09:50:30;;;;;;;21.42;5.15;;;;;;;31.59;29.02;99683.91;4972054;28;20030;-28
2023/10/23 09:52:56;;;;;;;20.30;5.72;;;;;;;31.87;29.18;99690.28;4972021;28;20031;-27
2023/10/23 09:55:26;;;;;;;20.83;5.35;;;;;;;32.25;29.33;99688.22;4972205;28;20078;-32
2023/10/23 09:57:54;;;;;;;24.27;6.25;;;;;;;33.00;28.62;99697.72;4971945;28;20474;-27
2023/10/23 10:00:20;;;;;;;26.45;5.50;;;;;;;33.31;28.07;99686.66;4972139;28;20019;-28
2023/10/23 10:02:53;;;;;;;26.02;5.63;;;;;;;32.84;27.82;99676.47;4972310;28;20110;-28
2023/10/23 10:05:30;;;;;;;21.02;5.25;;;;;;;33.05;27.60;99675.38;4972045;28;20138;-27
2023/10/23 10:08:04;;;;;;;24.35;5.32;;;;;;;33.09;27.72;99673.50;4972634;28;20031;-28
2023/10/23 10:10:32;;;;;;;21.50;5.07;;;;;;;33.47;27.86;99663.78;4972778;28;20038;-28
2023/10/23 10:12:58;;;;;;;23.45;5.38;;;;;;;33.90;27.65;99667.50;4972496;28;20185;-28
2023/10/23 10:15:24;;;;;;;18.52;5.35;;;;;;;34.10;27.15;99660.03;4972312;28;20566;-27
2023/10/23 10:17:50;;;;;;;25.80;6.13;;;;;;;34.17;26.58;99662.94;4972360;28;20387;-30
2023/10/23 10:20:20;;;;;;;21.02;5.88;;;;;;;33.95;26.76;99660.88;4975193;28;20092;-28
2023/10/23 10:22:55;;;;;;;19.48;5.55;;;;;;;33.98;27.24;99658.19;4976592;28;20026;-29
2023/10/23 10:25:21;;;;;;;25.25;5.38;;;;;;;34.20;27.00;99647.63;4976315;28;20035;-29
2023/10/23 10:27:57;;;;;;;20.48;5.85;;;;;;;34.41;26.54;99650.75;4976276;28;20037;-30
2023/10/23 10:30:45;;;;;;;24.50;5.40;;;;;;;34.56;26.03;99642.75;4976418;28;20406;-28
2023/10/23 10:33:20;;;;;;;28.70;5.50;;;;;;;34.66;25.87;99642.91;4976452;28;20088;-27
2023/10/23 10:36:00;;;;;;;23.23;6.10;;;;;;;34.44;26.22;99633.47;4976507;28;20026;-30
2023/10/23 10:38:27;;;;;;;29.45;5.75;;;;;;;34.18;26.56;99633.38;4991060;28;20486;-27
2023/10/23 10:40:59;;;;;;;20.95;4.82;;;;;;;34.23;25.98;99633.88;4976029;28;20027;-26
2023/10/23 10:43:48;;;;;;;23.67;5.20;;;;;;;34.20;25.76;99631.06;4976063;28;20406;-29
2023/10/23 10:46:25;;;;;;;19.30;4.70;;;;;;;34.30;26.26;99622.16;4975726;28;20093;-29
2023/10/23 10:48:54;;;;;;;22.67;5.22;;;;;;;34.29;26.15;99623.34;4975901;28;20030;-27
2023/10/23 10:51:25;;;;;;;18.90;4.72;;;;;;;34.21;26.09;99621.59;4975984;28;20037;-30
2023/10/23 10:54:02;;;;;;;24.90;5.57;;;;;;;33.92;26.57;99614.69;4975996;28;20027;-27
2023/10/23 10:56:27;;;;;;;20.58;4.72;;;;;;;33.94;26.80;99613.16;4975582;28;20034;-27
2023/10/23 10:58:53;;;;;;;24.02;5.00;;;;;;;32.95;27.15;99609.78;4975410;28;20114;-28
2023/10/23 11:01:22;;;;;;;17.95;5.15;;;;;;;32.76;27.59;99614.06;4975648;28;20027;-29
2023/10/23 11:03:47;;;;;;;22.88;4.72;;;;;;;33.17;27.17;99611.91;4974999;28;20287;-29
2023/10/23 11:06:13;;;;;;;27.33;5.30;;;;;;;32.69;27.42;99609.19;4975551;28;20031;-28
2023/10/23 11:08:40;;;;;;;28.48;5.35;;;;;;;32.83;27.58;99605.97;4975279;28;20133;-28
2023/10/23 11:11:06;;;;;;;25.38;5.22;;;;;;;32.89;27.27;99598.25;4975136;28;20081;-30
2023/10/23 11:13:34;;;;;;;21.48;5.28;;;;;;;32.39;27.65;99591.47;4975025;28;20019;-27
2023/10/23 11:16:00;;;;;;;16.65;4.30;;;;;;;32.62;28.14;99592.47;4974883;28;20025;-27
2023/10/23 11:18:28;;;;;;;20.83;4.78;;;;;;;33.10;27.55;99597.94;4974798;28;20035;-27
2023/10/23 11:21:00;;;;;;;17.33;4.63;;;;;;;32.22;28.53;99584.34;4975124;28;20490;-30